sensor_id;sensor_type;location;lat;lon;timestamp;pressure;altitude;pressure_sealevel;temperature;humidity
11936;BME280;6027;48.576;9.180;2023-02-19T00:00:59;97391.09;;;10.35;100.00
11936;BME280;6027;48.576;9.180;2023-02-19T00:03:26;97385.63;;;10.36;100.00
11936;BME280;6027;48.576;9.180;2023-02-19T00:05:51;97375.88;;;10.37;100.00
11936;BME280;6027;48.576;9.180;2023-02-19T00:08:17;97365.97;;;10.39;100.00
11936;BME280;6027;48.576;9.180;2023-02-19T00:10:42;97370.41;;;10.38;100.00
11936;BME280;6027;48.576;9.180;2023-02-19T00:15:33;97366.75;;;10.39;100.00
11936;BME280;6027;48.576;9.180;2023-02-19T00:17:58;97368.06;;;10.44;100.00
11936;BME280;6027;48.576;9.180;2023-02-19T00:20:24;97364.31;;;10.38;100.00
11936;BME280;6027;48.576;9.180;2023-02-19T00:22:49;97370.41;;;10.38;100.00
11936;BME280;6027;48.576;9.180;2023-02-19T00:25:15;97366.75;;;10.39;100.00
11936;BME280;6027;48.576;9.180;2023-02-19T00:27:40;97365.75;;;10.41;100.00
11936;BME280;6027;48.576;9.180;2023-02-19T00:30:06;97360.81;;;10.37;100.00
11936;BME280;6027;48.576;9.180;2023-02-19T00:32:32;97365.97;;;10.39;100.00
11936;BME280;6027;48.576;9.180;2023-02-19T00:34:57;97360.66;;;10.39;100.00
11936;BME280;6027;48.576;9.180;2023-02-19T00:37:23;97360.81;;;10.37;100.00
11936;BME280;6027;48.576;9.180;2023-02-19T00:39:48;97361.47;;;10.39;100.00
11936;BME280;6027;48.576;9.180;2023-02-19T00:42:14;97353.84;;;10.45;100.00
11936;BME280;6027;48.576;9.180;2023-02-19T00:44:39;97342.75;;;10.41;100.00
11936;BME280;6027;48.576;9.180;2023-02-19T00:47:04;97347.44;;;10.39;100.00
11936;BME280;6027;48.576;9.180;2023-02-19T00:49:30;97344.13;;;10.37;100.00
11936;BME280;6027;48.576;9.180;2023-02-19T00:51:55;97346.59;;;10.38;100.00
11936;BME280;6027;48.576;9.180;2023-02-19T00:54:21;97349.41;;;10.37;100.00
11936;BME280;6027;48.576;9.180;2023-02-19T00:56:49;97362.47;;;10.38;100.00
11936;BME280;6027;48.576;9.180;2023-02-19T00:59:15;97358.00;;;10.39;100.00
11936;BME280;6027;48.576;9.180;2023-02-19T01:01:41;97366.75;;;10.39;100.00
11936;BME280;6027;48.576;9.180;2023-02-19T01:04:08;97366.41;;;10.43;100.00
11936;BME280;6027;48.576;9.180;2023-02-19T01:06:34;97363.47;;;10.37;100.00
11936;BME280;6027;48.576;9.180;2023-02-19T01:09:00;97354.88;;;10.35;100.00
11936;BME280;6027;48.576;9.180;2023-02-19T01:11:25;97366.13;;;10.37;100.00
11936;BME280;6027;48.576;9.180;2023-02-19T01:13:52;97361.81;;;10.36;100.00
11936;BME280;6027;48.576;9.180;2023-02-19T01:16:21;97359.84;;;10.38;100.00
11936;BME280;6027;48.576;9.180;2023-02-19T01:18:50;97352.06;;;10.37;100.00
11936;BME280;6027;48.576;9.180;2023-02-19T01:21:19;97351.56;;;10.33;100.00
11936;BME280;6027;48.576;9.180;2023-02-19T01:23:45;97352.06;;;10.37;100.00
11936;BME280;6027;48.576;9.180;2023-02-19T01:26:13;97352.06;;;10.37;100.00
11936;BME280;6027;48.576;9.180;2023-02-19T01:28:39;97341.47;;;10.37;100.00
11936;BME280;6027;48.576;9.180;2023-02-19T01:31:07;97341.97;;;10.32;100.00
11936;BME280;6027;48.576;9.180;2023-02-19T01:33:33;97347.59;;;10.29;100.00
11936;BME280;6027;48.576;9.180;2023-02-19T01:36:02;97338.00;;;10.28;100.00
11936;BME280;6027;48.576;9.180;2023-02-19T01:38:27;97347.25;;;10.32;100.00
11936;BME280;6027;48.576;9.180;2023-02-19T01:40:58;97335.34;;;10.36;100.00
11936;BME280;6027;48.576;9.180;2023-02-19T01:43:24;97346.44;;;10.32;100.00
11936;BME280;6027;48.576;9.180;2023-02-19T01:45:49;97328.25;;;10.29;100.00
11936;BME280;6027;48.576;9.180;2023-02-19T01:48:18;97322.94;;;10.29;100.00
11936;BME280;6027;48.576;9.180;2023-02-19T01:50:51;97317.31;;;10.32;100.00
11936;BME280;6027;48.576;9.180;2023-02-19T01:53:21;97325.09;;;10.33;100.00
11936;BME280;6027;48.576;9.180;2023-02-19T01:55:51;97318.81;;;10.34;100.00
11936;BME280;6027;48.576;9.180;2023-02-19T01:58:18;97330.91;;;10.29;100.00
11936;BME280;6027;48.576;9.180;2023-02-19T02:00:44;97323.44;;;10.32;100.00
11936;BME280;6027;48.576;9.180;2023-02-19T02:03:10;97315.19;;;10.27;100.00
11936;BME280;6027;48.576;9.180;2023-02-19T02:05:43;97324.94;;;10.27;100.00
11936;BME280;6027;48.576;9.180;2023-02-19T02:08:12;97321.28;;;10.28;100.00
11936;BME280;6027;48.576;9.180;2023-02-19T02:11:04;97326.75;;;10.26;100.00
11936;BME280;6027;48.576;9.180;2023-02-19T02:13:32;97315.69;;;10.31;100.00
11936;BME280;6027;48.576;9.180;2023-02-19T02:16:05;97320.31;;;10.29;100.00
11936;BME280;6027;48.576;9.180;2023-02-19T02:24:24;97328.75;;;10.24;100.00
11936;BME280;6027;48.576;9.180;2023-02-19T02:27:28;97322.63;;;10.24;100.00
11936;BME280;6027;48.576;9.180;2023-02-19T02:32:37;97322.97;;;10.21;100.00
11936;BME280;6027;48.576;9.180;2023-02-19T02:35:09;97322.47;;;10.17;100.00
11936;BME280;6027;48.576;9.180;2023-02-19T02:37:37;97317.88;;;10.19;100.00
11936;BME280;6027;48.576;9.180;2023-02-19T02:40:06;97327.63;;;10.19;100.00
11936;BME280;6027;48.576;9.180;2023-02-19T02:42:33;97315.84;;;10.13;100.00
11936;BME280;6027;48.576;9.180;2023-02-19T02:45:24;97315.84;;;10.13;100.00
11936;BME280;6027;48.576;9.180;2023-02-19T02:50:55;97308.44;;;10.00;100.00
11936;BME280;6027;48.576;9.180;2023-02-19T02:56:12;97308.28;;;9.94;100.00
11936;BME280;6027;48.576;9.180;2023-02-19T02:58:39;97309.94;;;9.95;100.00
11936;BME280;6027;48.576;9.180;2023-02-19T03:01:11;97298.34;;;9.88;100.00
11936;BME280;6027;48.576;9.180;2023-02-19T03:04:35;97284.63;;;9.84;100.00
11936;BME280;6027;48.576;9.180;2023-02-19T03:07:23;97284.81;;;9.91;100.00
11936;BME280;6027;48.576;9.180;2023-02-19T03:09:50;97288.28;;;9.91;100.00
11936;BME280;6027;48.576;9.180;2023-02-19T03:12:16;97283.47;;;9.87;100.00
11936;BME280;6027;48.576;9.180;2023-02-19T03:15:05;97282.50;;;9.88;100.00
11936;BME280;6027;48.576;9.180;2023-02-19T03:17:57;97280.50;;;9.82;100.00
11936;BME280;6027;48.576;9.180;2023-02-19T03:20:47;97285.63;;;9.83;100.00
11936;BME280;6027;48.576;9.180;2023-02-19T03:23:16;97289.63;;;9.79;100.00
11936;BME280;6027;48.576;9.180;2023-02-19T03:25:43;97282.53;;;9.80;100.00
11936;BME280;6027;48.576;9.180;2023-02-19T03:28:31;97278.53;;;9.76;100.00
11936;BME280;6027;48.576;9.180;2023-02-19T03:31:18;97280.53;;;9.74;100.00
11936;BME280;6027;48.576;9.180;2023-02-19T03:33:52;97284.16;;;9.73;100.00
11936;BME280;6027;48.576;9.180;2023-02-19T03:36:20;97289.78;;;9.69;100.00
11936;BME280;6027;48.576;9.180;2023-02-19T03:38:56;97288.13;;;9.68;100.00
11936;BME280;6027;48.576;9.180;2023-02-19T03:44:15;97289.13;;;9.51;100.00
11936;BME280;6027;48.576;9.180;2023-02-19T03:47:01;97286.31;;;9.45;100.00
11936;BME280;6027;48.576;9.180;2023-02-19T03:49:36;97290.97;;;9.43;100.00
11936;BME280;6027;48.576;9.180;2023-02-19T03:57:17;97301.47;;;9.02;100.00
11936;BME280;6027;48.576;9.180;2023-02-19T04:00:05;97297.03;;;9.03;100.00
11936;BME280;6027;48.576;9.180;2023-02-19T04:02:39;97306.25;;;8.98;100.00
11936;BME280;6027;48.576;9.180;2023-02-19T04:05:07;97305.78;;;9.03;100.00
11936;BME280;6027;48.576;9.180;2023-02-19T04:07:37;97300.13;;;9.06;100.00
11936;BME280;6027;48.576;9.180;2023-02-19T04:10:05;97309.25;;;9.12;100.00
11936;BME280;6027;48.576;9.180;2023-02-19T04:12:32;97304.94;;;9.11;100.00
11936;BME280;6027;48.576;9.180;2023-02-19T04:15:02;97303.16;;;9.19;100.00
11936;BME280;6027;48.576;9.180;2023-02-19T04:17:44;97298.03;;;9.18;100.00
11936;BME280;6027;48.576;9.180;2023-02-19T04:20:12;97306.78;;;9.18;100.00
11936;BME280;6027;48.576;9.180;2023-02-19T04:22:38;97303.66;;;9.23;100.00
11936;BME280;6027;48.576;9.180;2023-02-19T04:25:05;97311.91;;;9.20;100.00
11936;BME280;6027;48.576;9.180;2023-02-19T04:27:35;97314.38;;;9.21;100.00
11936;BME280;6027;48.576;9.180;2023-02-19T04:30:01;97319.84;;;9.20;100.00
11936;BME280;6027;48.576;9.180;2023-02-19T04:32:26;97325.78;;;9.22;100.00
11936;BME280;6027;48.576;9.180;2023-02-19T04:34:52;97337.66;;;9.18;100.00
11936;BME280;6027;48.576;9.180;2023-02-19T04:37:17;97335.03;;;9.18;100.00
11936;BME280;6027;48.576;9.180;2023-02-19T04:39:43;97340.47;;;9.24;100.00
11936;BME280;6027;48.576;9.180;2023-02-19T04:42:09;97342.13;;;9.25;100.00
11936;BME280;6027;48.576;9.180;2023-02-19T04:44:35;97346.56;;;9.25;100.00
11936;BME280;6027;48.576;9.180;2023-02-19T04:47:00;97344.91;;;9.24;100.00
11936;BME280;6027;48.576;9.180;2023-02-19T04:49:26;97348.22;;;9.26;100.00
11936;BME280;6027;48.576;9.180;2023-02-19T04:51:51;97339.63;;;9.24;100.00
11936;BME280;6027;48.576;9.180;2023-02-19T04:54:17;97344.59;;;9.19;100.00
11936;BME280;6027;48.576;9.180;2023-02-19T04:56:42;97358.78;;;9.18;100.00
11936;BME280;6027;48.576;9.180;2023-02-19T04:59:08;97357.78;;;9.11;100.00
11936;BME280;6027;48.576;9.180;2023-02-19T05:01:34;97354.81;;;9.14;100.00
11936;BME280;6027;48.576;9.180;2023-02-19T05:03:59;97358.75;;;9.10;100.00
11936;BME280;6027;48.576;9.180;2023-02-19T05:06:24;97362.22;;;9.10;100.00
11936;BME280;6027;48.576;9.180;2023-02-19T05:08:50;97363.25;;;9.17;100.00
11936;BME280;6027;48.576;9.180;2023-02-19T05:11:15;97366.38;;;9.13;100.00
11936;BME280;6027;48.576;9.180;2023-02-19T05:13:41;97363.88;;;9.11;100.00
11936;BME280;6027;48.576;9.180;2023-02-19T05:16:09;97361.41;;;9.10;100.00
11936;BME280;6027;48.576;9.180;2023-02-19T05:18:37;97364.50;;;9.05;100.00
11936;BME280;6027;48.576;9.180;2023-02-19T05:21:02;97365.53;;;9.04;100.00
11936;BME280;6027;48.576;9.180;2023-02-19T05:23:28;97363.06;;;9.03;100.00
11936;BME280;6027;48.576;9.180;2023-02-19T05:25:53;97364.72;;;9.04;100.00
11936;BME280;6027;48.576;9.180;2023-02-19T05:28:20;97369.16;;;9.03;100.00
11936;BME280;6027;48.576;9.180;2023-02-19T05:30:53;97368.50;;;9.01;100.00
11936;BME280;6027;48.576;9.180;2023-02-19T05:33:20;97376.41;;;9.09;100.00
11936;BME280;6027;48.576;9.180;2023-02-19T05:35:49;97386.00;;;9.02;100.00
11936;BME280;6027;48.576;9.180;2023-02-19T05:38:15;97388.97;;;9.07;100.00
11936;BME280;6027;48.576;9.180;2023-02-19T05:40:42;97390.09;;;9.05;100.00
11936;BME280;6027;48.576;9.180;2023-02-19T05:43:08;97388.13;;;9.07;100.00
11936;BME280;6027;48.576;9.180;2023-02-19T05:45:34;97392.25;;;9.01;100.00
11936;BME280;6027;48.576;9.180;2023-02-19T05:48:00;97385.84;;;9.04;100.00
11936;BME280;6027;48.576;9.180;2023-02-19T05:50:26;97379.22;;;8.99;100.00
11936;BME280;6027;48.576;9.180;2023-02-19T05:52:51;97384.34;;;9.01;100.00
11936;BME280;6027;48.576;9.180;2023-02-19T05:55:17;97378.91;;;9.03;100.00
11936;BME280;6027;48.576;9.180;2023-02-19T05:57:45;97392.94;;;9.03;100.00
11936;BME280;6027;48.576;9.180;2023-02-19T06:00:14;97389.94;;;8.98;100.00
11936;BME280;6027;48.576;9.180;2023-02-19T06:02:40;97404.78;;;8.99;100.00
11936;BME280;6027;48.576;9.180;2023-02-19T06:05:06;97403.28;;;8.96;100.00
11936;BME280;6027;48.576;9.180;2023-02-19T06:07:32;97407.22;;;8.92;100.00
11936;BME280;6027;48.576;9.180;2023-02-19T06:09:58;97398.31;;;8.93;100.00
11936;BME280;6027;48.576;9.180;2023-02-19T06:12:23;97404.91;;;8.89;100.00
11936;BME280;6027;48.576;9.180;2023-02-19T06:14:49;97404.91;;;8.89;100.00
11936;BME280;6027;48.576;9.180;2023-02-19T06:17:14;97418.63;;;8.93;100.00
11936;BME280;6027;48.576;9.180;2023-02-19T06:19:40;97414.47;;;8.90;100.00
11936;BME280;6027;48.576;9.180;2023-02-19T06:22:06;97431.97;;;8.91;100.00
11936;BME280;6027;48.576;9.180;2023-02-19T06:24:32;97429.03;;;8.94;100.00
11936;BME280;6027;48.576;9.180;2023-02-19T06:26:57;97433.78;;;8.91;100.00
11936;BME280;6027;48.576;9.180;2023-02-19T06:29:23;97432.28;;;8.88;100.00
11936;BME280;6027;48.576;9.180;2023-02-19T06:31:49;97440.38;;;8.87;100.00
11936;BME280;6027;48.576;9.180;2023-02-19T06:34:14;97445.50;;;8.88;100.00
11936;BME280;6027;48.576;9.180;2023-02-19T06:36:39;97466.31;;;8.91;100.00
11936;BME280;6027;48.576;9.180;2023-02-19T06:39:05;97465.94;;;8.86;100.00
11936;BME280;6027;48.576;9.180;2023-02-19T06:41:30;97471.59;;;8.91;100.00
11936;BME280;6027;48.576;9.180;2023-02-19T06:43:59;97485.94;;;8.89;100.00
11936;BME280;6027;48.576;9.180;2023-02-19T06:46:24;97488.84;;;8.78;100.00
11936;BME280;6027;48.576;9.180;2023-02-19T06:48:50;97485.31;;;8.69;100.00
11936;BME280;6027;48.576;9.180;2023-02-19T06:51:17;97494.84;;;8.62;100.00
11936;BME280;6027;48.576;9.180;2023-02-19T06:53:46;97513.03;;;8.47;100.00
11936;BME280;6027;48.576;9.180;2023-02-19T06:56:39;97508.16;;;8.35;100.00
11936;BME280;6027;48.576;9.180;2023-02-19T06:59:10;97507.84;;;8.20;100.00
11936;BME280;6027;48.576;9.180;2023-02-19T07:01:37;97497.75;;;8.15;100.00
11936;BME280;6027;48.576;9.180;2023-02-19T07:04:04;97507.25;;;8.08;100.00
11936;BME280;6027;48.576;9.180;2023-02-19T07:06:30;97515.63;;;8.04;100.00
11936;BME280;6027;48.576;9.180;2023-02-19T07:08:57;97511.19;;;8.04;100.00
11936;BME280;6027;48.576;9.180;2023-02-19T07:11:23;97515.91;;;8.01;100.00
11936;BME280;6027;48.576;9.180;2023-02-19T07:13:54;97522.63;;;7.95;100.00
11936;BME280;6027;48.576;9.180;2023-02-19T07:16:19;97518.03;;;7.97;100.00
11936;BME280;6027;48.576;9.180;2023-02-19T07:18:45;97523.00;;;8.00;100.00
11936;BME280;6027;48.576;9.180;2023-02-19T07:21:12;97522.19;;;8.00;100.00
11936;BME280;6027;48.576;9.180;2023-02-19T07:23:38;97535.34;;;8.00;100.00
11936;BME280;6027;48.576;9.180;2023-02-19T07:26:08;97534.28;;;8.10;100.00
11936;BME280;6027;48.576;9.180;2023-02-19T07:28:33;97533.47;;;8.10;100.00
11936;BME280;6027;48.576;9.180;2023-02-19T07:31:00;97531.06;;;8.16;100.00
11936;BME280;6027;48.576;9.180;2023-02-19T07:33:26;97531.06;;;8.16;100.00
11936;BME280;6027;48.576;9.180;2023-02-19T07:35:51;97539.50;;;8.20;100.00
11936;BME280;6027;48.576;9.180;2023-02-19T07:38:18;97545.16;;;8.25;100.00
11936;BME280;6027;48.576;9.180;2023-02-19T07:40:54;97547.66;;;8.26;100.00
11936;BME280;6027;48.576;9.180;2023-02-19T07:43:21;97554.41;;;8.29;100.00
11936;BME280;6027;48.576;9.180;2023-02-19T07:45:47;97554.00;;;8.34;100.00
11936;BME280;6027;48.576;9.180;2023-02-19T07:48:13;97558.00;;;8.38;100.00
11936;BME280;6027;48.576;9.180;2023-02-19T07:50:38;97554.81;;;8.34;100.00
11936;BME280;6027;48.576;9.180;2023-02-19T07:53:04;97560.94;;;8.35;100.00
11936;BME280;6027;48.576;9.180;2023-02-19T07:55:33;97557.16;;;8.37;100.00
11936;BME280;6027;48.576;9.180;2023-02-19T07:57:59;97562.31;;;8.39;100.00
11936;BME280;6027;48.576;9.180;2023-02-19T08:00:25;97561.19;;;8.31;100.00
11936;BME280;6027;48.576;9.180;2023-02-19T08:02:51;97556.19;;;8.38;100.00
11936;BME280;6027;48.576;9.180;2023-02-19T08:05:26;97562.00;;;8.42;100.00
11936;BME280;6027;48.576;9.180;2023-02-19T08:07:52;97565.22;;;8.36;100.00
11936;BME280;6027;48.576;9.180;2023-02-19T08:10:18;97568.94;;;8.43;100.00
11936;BME280;6027;48.576;9.180;2023-02-19T08:13:03;97573.69;;;8.39;100.00
11936;BME280;6027;48.576;9.180;2023-02-19T08:18:29;97584.47;;;8.46;100.00
11936;BME280;6027;48.576;9.180;2023-02-19T08:20:55;97583.94;;;8.42;100.00
11936;BME280;6027;48.576;9.180;2023-02-19T08:23:21;97581.75;;;8.38;100.00
11936;BME280;6027;48.576;9.180;2023-02-19T08:25:48;97586.50;;;8.34;100.00
11936;BME280;6027;48.576;9.180;2023-02-19T08:28:14;97582.78;;;8.27;100.00
11936;BME280;6027;48.576;9.180;2023-02-19T08:30:41;97584.25;;;8.29;100.00
11936;BME280;6027;48.576;9.180;2023-02-19T08:33:09;97591.13;;;8.22;100.00
11936;BME280;6027;48.576;9.180;2023-02-19T08:35:36;97592.56;;;8.17;100.00
11936;BME280;6027;48.576;9.180;2023-02-19T08:38:02;97593.78;;;8.22;100.00
11936;BME280;6027;48.576;9.180;2023-02-19T08:40:29;97597.00;;;8.16;100.00
11936;BME280;6027;48.576;9.180;2023-02-19T08:42:54;97595.19;;;8.17;100.00
11936;BME280;6027;48.576;9.180;2023-02-19T08:45:20;97599.88;;;8.23;100.00
11936;BME280;6027;48.576;9.180;2023-02-19T08:47:47;97601.00;;;8.20;100.00
11936;BME280;6027;48.576;9.180;2023-02-19T08:50:12;97607.94;;;8.21;100.00
11936;BME280;6027;48.576;9.180;2023-02-19T08:52:38;97600.78;;;8.31;100.00
11936;BME280;6027;48.576;9.180;2023-02-19T08:55:04;97610.09;;;8.36;100.00
11936;BME280;6027;48.576;9.180;2023-02-19T08:57:30;97616.19;;;8.36;100.00
11936;BME280;6027;48.576;9.180;2023-02-19T08:59:55;97618.09;;;8.44;100.00
11936;BME280;6027;48.576;9.180;2023-02-19T09:02:23;97611.00;;;8.44;100.00
11936;BME280;6027;48.576;9.180;2023-02-19T09:04:49;97614.34;;;8.46;100.00
11936;BME280;6027;48.576;9.180;2023-02-19T09:07:15;97614.69;;;8.51;100.00
11936;BME280;6027;48.576;9.180;2023-02-19T09:09:41;97606.09;;;8.49;100.00
11936;BME280;6027;48.576;9.180;2023-02-19T09:12:08;97610.25;;;8.52;100.00
11936;BME280;6027;48.576;9.180;2023-02-19T09:14:34;97607.59;;;8.52;100.00
11936;BME280;6027;48.576;9.180;2023-02-19T09:17:01;97605.25;;;8.49;100.00
11936;BME280;6027;48.576;9.180;2023-02-19T09:19:27;97623.97;;;8.55;100.00
11936;BME280;6027;48.576;9.180;2023-02-19T09:21:53;97625.78;;;8.55;100.00
11936;BME280;6027;48.576;9.180;2023-02-19T09:24:19;97626.22;;;8.50;100.00
11936;BME280;6027;48.576;9.180;2023-02-19T09:26:48;97635.25;;;8.48;100.00
11936;BME280;6027;48.576;9.180;2023-02-19T09:29:14;97635.59;;;8.45;100.00
11936;BME280;6027;48.576;9.180;2023-02-19T09:31:40;97654.56;;;8.48;100.00
11936;BME280;6027;48.576;9.180;2023-02-19T09:34:05;97654.72;;;8.47;100.00
11936;BME280;6027;48.576;9.180;2023-02-19T09:36:31;97674.19;;;8.46;100.00
11936;BME280;6027;48.576;9.180;2023-02-19T09:38:58;97675.63;;;8.40;100.00
11936;BME280;6027;48.576;9.180;2023-02-19T09:41:49;97672.16;;;8.40;100.00
11936;BME280;6027;48.576;9.180;2023-02-19T09:44:22;97670.81;;;8.26;100.00
11936;BME280;6027;48.576;9.180;2023-02-19T09:46:51;97665.28;;;8.19;100.00
11936;BME280;6027;48.576;9.180;2023-02-19T09:49:22;97675.25;;;8.25;100.00
11936;BME280;6027;48.576;9.180;2023-02-19T09:51:58;97666.88;;;8.30;100.00
11936;BME280;6027;48.576;9.180;2023-02-19T09:54:27;97680.22;;;8.28;100.00
11936;BME280;6027;48.576;9.180;2023-02-19T09:56:55;97676.47;;;8.31;100.00
11936;BME280;6027;48.576;9.180;2023-02-19T09:59:28;97695.06;;;8.29;100.00
11936;BME280;6027;48.576;9.180;2023-02-19T10:02:04;97697.03;;;8.27;100.00
11936;BME280;6027;48.576;9.180;2023-02-19T10:04:29;97693.69;;;8.35;100.00
11936;BME280;6027;48.576;9.180;2023-02-19T10:06:57;97693.25;;;8.40;100.00
11936;BME280;6027;48.576;9.180;2023-02-19T10:09:28;97698.25;;;8.43;100.00
11936;BME280;6027;48.576;9.180;2023-02-19T10:11:56;97705.19;;;8.44;100.00
11936;BME280;6027;48.576;9.180;2023-02-19T10:14:30;97705.78;;;8.55;100.00
11936;BME280;6027;48.576;9.180;2023-02-19T10:17:01;97701.28;;;8.65;100.00
11936;BME280;6027;48.576;9.180;2023-02-19T10:19:27;97691.84;;;8.63;100.00
11936;BME280;6027;48.576;9.180;2023-02-19T10:21:53;97708.06;;;8.68;100.00
11936;BME280;6027;48.576;9.180;2023-02-19T10:24:25;97704.81;;;8.74;100.00
11936;BME280;6027;48.576;9.180;2023-02-19T10:26:52;97706.63;;;8.74;100.00
11936;BME280;6027;48.576;9.180;2023-02-19T10:29:18;97708.44;;;8.73;100.00
11936;BME280;6027;48.576;9.180;2023-02-19T10:31:44;97702.72;;;8.78;100.00
11936;BME280;6027;48.576;9.180;2023-02-19T10:34:18;97702.28;;;8.82;100.00
11936;BME280;6027;48.576;9.180;2023-02-19T10:36:47;97701.94;;;8.85;100.00
11936;BME280;6027;48.576;9.180;2023-02-19T10:41:48;97696.50;;;9.05;100.00
11936;BME280;6027;48.576;9.180;2023-02-19T10:44:19;97704.13;;;9.08;100.00
11936;BME280;6027;48.576;9.180;2023-02-19T10:46:47;97717.41;;;9.16;100.00
11936;BME280;6027;48.576;9.180;2023-02-19T10:51:42;97712.09;;;9.33;100.00
11936;BME280;6027;48.576;9.180;2023-02-19T10:54:26;97721.69;;;9.34;100.00
11936;BME280;6027;48.576;9.180;2023-02-19T10:59:54;97716.44;;;9.17;100.00
11936;BME280;6027;48.576;9.180;2023-02-19T11:02:24;97714.41;;;9.11;100.00
11936;BME280;6027;48.576;9.180;2023-02-19T11:05:20;97704.59;;;9.03;100.00
11936;BME280;6027;48.576;9.180;2023-02-19T11:07:49;97716.59;;;8.97;100.00
11936;BME280;6027;48.576;9.180;2023-02-19T11:10:30;97718.84;;;8.92;100.00
11936;BME280;6027;48.576;9.180;2023-02-19T11:13:01;97712.44;;;8.95;100.00
11936;BME280;6027;48.576;9.180;2023-02-19T11:15:33;97716.38;;;8.91;100.00
11936;BME280;6027;48.576;9.180;2023-02-19T11:20:52;97708.81;;;8.96;100.00
11936;BME280;6027;48.576;9.180;2023-02-19T11:23:44;97704.38;;;8.96;100.00
11936;BME280;6027;48.576;9.180;2023-02-19T11:26:23;97700.59;;;8.81;100.00
11936;BME280;6027;48.576;9.180;2023-02-19T11:28:58;97702.31;;;8.73;100.00
11936;BME280;6027;48.576;9.180;2023-02-19T11:31:27;97702.19;;;8.74;100.00
11936;BME280;6027;48.576;9.180;2023-02-19T11:33:58;97706.63;;;8.74;100.00
11936;BME280;6027;48.576;9.180;2023-02-19T11:36:32;97702.31;;;8.73;100.00
11936;BME280;6027;48.576;9.180;2023-02-19T11:45:16;97687.16;;;8.75;100.00
11936;BME280;6027;48.576;9.180;2023-02-19T11:50:56;97697.66;;;8.84;100.00
11936;BME280;6027;48.576;9.180;2023-02-19T11:53:33;97701.34;;;8.91;100.00
11936;BME280;6027;48.576;9.180;2023-02-19T11:56:22;97694.78;;;8.95;99.53
11936;BME280;6027;48.576;9.180;2023-02-19T11:59:14;97708.06;;;9.04;99.84
11936;BME280;6027;48.576;9.180;2023-02-19T12:04:55;97706.53;;;9.19;99.10
11936;BME280;6027;48.576;9.180;2023-02-19T12:18:46;97722.75;;;9.24;87.04
11936;BME280;6027;48.576;9.180;2023-02-19T12:23:38;97716.72;;;9.31;86.46
11936;BME280;6027;48.576;9.180;2023-02-19T12:26:27;97718.53;;;9.31;84.74
11936;BME280;6027;48.576;9.180;2023-02-19T12:31:49;97713.47;;;9.38;83.40
11936;BME280;6027;48.576;9.180;2023-02-19T12:43:12;97681.53;;;9.57;82.12
11936;BME280;6027;48.576;9.180;2023-02-19T12:46:04;97675.13;;;9.59;83.21
11936;BME280;6027;48.576;9.180;2023-02-19T12:48:55;97666.97;;;9.79;83.28
11936;BME280;6027;48.576;9.180;2023-02-19T12:51:57;97671.03;;;9.99;83.79
11936;BME280;6027;48.576;9.180;2023-02-19T12:54:45;97670.91;;;9.75;83.29
11936;BME280;6027;48.576;9.180;2023-02-19T12:57:32;97667.66;;;9.55;84.14
11936;BME280;6027;48.576;9.180;2023-02-19T13:00:20;97680.13;;;9.45;84.91
11936;BME280;6027;48.576;9.180;2023-02-19T13:02:58;97675.34;;;9.48;83.97
11936;BME280;6027;48.576;9.180;2023-02-19T13:05:39;97677.03;;;9.49;84.68
11936;BME280;6027;48.576;9.180;2023-02-19T13:11:09;97666.06;;;9.44;84.63
11936;BME280;6027;48.576;9.180;2023-02-19T13:13:45;97654.22;;;9.48;85.10
11936;BME280;6027;48.576;9.180;2023-02-19T13:16:17;97651.81;;;9.63;85.39
11936;BME280;6027;48.576;9.180;2023-02-19T13:18:57;97651.19;;;9.69;82.81
11936;BME280;6027;48.576;9.180;2023-02-19T13:21:25;97651.56;;;9.74;84.25
11936;BME280;6027;48.576;9.180;2023-02-19T13:24:33;97663.97;;;9.82;83.27
11936;BME280;6027;48.576;9.180;2023-02-19T13:35:25;97664.06;;;9.98;79.69
11936;BME280;6027;48.576;9.180;2023-02-19T13:37:53;97670.00;;;9.92;77.86
11936;BME280;6027;48.576;9.180;2023-02-19T13:40:38;97675.13;;;9.93;78.15
11936;BME280;6027;48.576;9.180;2023-02-19T13:43:06;97691.34;;;9.98;77.64
11936;BME280;6027;48.576;9.180;2023-02-19T13:45:45;97685.72;;;10.01;76.55
11936;BME280;6027;48.576;9.180;2023-02-19T13:48:23;97680.94;;;10.05;77.29
11936;BME280;6027;48.576;9.180;2023-02-19T13:53:58;97673.16;;;9.95;76.28
11936;BME280;6027;48.576;9.180;2023-02-19T14:14:39;97655.56;;;9.86;75.85
11936;BME280;6027;48.576;9.180;2023-02-19T14:25:40;97673.78;;;9.89;74.61
11936;BME280;6027;48.576;9.180;2023-02-19T14:33:14;97675.66;;;9.71;74.11
11936;BME280;6027;48.576;9.180;2023-02-19T14:35:43;97673.34;;;9.68;76.52
11936;BME280;6027;48.576;9.180;2023-02-19T14:38:31;97667.88;;;9.69;76.98
11936;BME280;6027;48.576;9.180;2023-02-19T14:40:58;97693.28;;;9.62;79.19
11936;BME280;6027;48.576;9.180;2023-02-19T14:43:25;97686.31;;;9.53;87.71
11936;BME280;6027;48.576;9.180;2023-02-19T14:48:24;97696.69;;;9.03;93.13
11936;BME280;6027;48.576;9.180;2023-02-19T14:50:54;97707.25;;;9.03;98.02
11936;BME280;6027;48.576;9.180;2023-02-19T14:53:23;97704.59;;;9.03;95.14
11936;BME280;6027;48.576;9.180;2023-02-19T14:55:51;97710.19;;;9.00;95.12
11936;BME280;6027;48.576;9.180;2023-02-19T14:58:23;97696.97;;;9.00;95.81
11936;BME280;6027;48.576;9.180;2023-02-19T15:00:50;97689.06;;;9.00;93.06
11936;BME280;6027;48.576;9.180;2023-02-19T15:05:58;97697.19;;;9.07;95.28
11936;BME280;6027;48.576;9.180;2023-02-19T15:08:30;97703.97;;;9.09;95.15
11936;BME280;6027;48.576;9.180;2023-02-19T15:10:56;97707.41;;;9.02;93.16
11936;BME280;6027;48.576;9.180;2023-02-19T15:13:26;97707.41;;;9.02;91.60
11936;BME280;6027;48.576;9.180;2023-02-19T15:15:52;97725.41;;;9.06;93.27
11936;BME280;6027;48.576;9.180;2023-02-19T15:18:22;97731.22;;;9.10;90.78
11936;BME280;6027;48.576;9.180;2023-02-19T15:20:48;97722.63;;;9.08;89.41
11936;BME280;6027;48.576;9.180;2023-02-19T15:23:21;97721.94;;;9.06;91.25
11936;BME280;6027;48.576;9.180;2023-02-19T15:25:47;97724.75;;;9.04;91.27
11936;BME280;6027;48.576;9.180;2023-02-19T15:31:04;97740.66;;;8.94;91.24
11936;BME280;6027;48.576;9.180;2023-02-19T15:33:32;97744.97;;;8.95;91.84
11936;BME280;6027;48.576;9.180;2023-02-19T15:36:00;97750.50;;;9.02;91.55